createdAt,value
2022-10-10T00:01:27.133Z,0.85
2022-10-10T00:03:55.310Z,1.10
2022-10-10T00:06:23.316Z,1.00
2022-10-10T00:08:51.167Z,1.00
2022-10-10T00:11:22.403Z,1.10
2022-10-10T00:13:50.808Z,0.80
2022-10-10T00:16:19.104Z,1.15
2022-10-10T00:18:47.244Z,1.00
2022-10-10T00:21:14.828Z,1.10
2022-10-10T00:23:42.583Z,1.20
2022-10-10T00:26:14.984Z,1.15
2022-10-10T00:28:46.589Z,1.00
2022-10-10T00:31:14.289Z,1.13
2022-10-10T00:33:41.732Z,1.00
2022-10-10T00:36:09.642Z,1.00
2022-10-10T00:38:37.371Z,1.08
2022-10-10T00:41:05.571Z,1.05
2022-10-10T00:43:34.104Z,0.90
2022-10-10T00:46:01.634Z,1.02
2022-10-10T00:48:31.464Z,1.15
2022-10-10T00:51:03.272Z,1.10
2022-10-10T00:53:38.798Z,1.00
2022-10-10T00:56:08.345Z,1.10
2022-10-10T00:58:37.548Z,0.80
2022-10-10T01:01:05.392Z,1.10
2022-10-10T01:03:32.903Z,0.95
2022-10-10T01:06:00.875Z,1.00
2022-10-10T01:08:28.690Z,0.80
2022-10-10T01:11:14.490Z,1.08
2022-10-10T01:14:20.073Z,1.38
2022-10-10T01:17:04.608Z,0.88
2022-10-10T01:20:25.997Z,1.15
2022-10-10T01:22:56.082Z,0.90
2022-10-10T01:25:46.816Z,1.00
2022-10-10T01:28:27.135Z,1.00
2022-10-10T01:30:57.278Z,1.08
2022-10-10T01:33:36.432Z,1.10
2022-10-10T01:36:03.892Z,1.10
2022-10-10T01:38:45.684Z,1.00
2022-10-10T01:41:19.988Z,1.02
2022-10-10T01:43:53.294Z,1.10
2022-10-10T01:46:20.762Z,1.20
2022-10-10T01:48:51.718Z,1.20
2022-10-10T01:51:43.471Z,1.00
2022-10-10T01:54:18.826Z,1.15
2022-10-10T01:56:59.252Z,1.23
2022-10-10T01:59:32.011Z,1.83
2022-10-10T02:02:08.810Z,1.00
2022-10-10T02:05:00.854Z,1.20
2022-10-10T02:07:34.394Z,1.20
2022-10-10T02:10:06.863Z,1.10
2022-10-10T02:12:36.978Z,1.20
2022-10-10T02:15:16.627Z,1.20
2022-10-10T02:17:47.300Z,1.17
2022-10-10T02:20:18.945Z,1.50
2022-10-10T02:22:50.531Z,1.65
2022-10-10T02:25:22.850Z,1.48
2022-10-10T02:28:04.678Z,1.10
2022-10-10T02:30:36.616Z,1.20
2022-10-10T02:33:07.664Z,1.20
2022-10-10T02:35:40.633Z,1.30
2022-10-10T02:38:11.259Z,2.03
2022-10-10T02:40:41.803Z,1.48
2022-10-10T02:43:11.154Z,1.23
2022-10-10T02:45:40.627Z,1.55
2022-10-10T02:48:09.510Z,1.30
2022-10-10T02:50:37.578Z,1.13
2022-10-10T02:53:05.118Z,1.35
2022-10-10T02:55:32.970Z,1.20
2022-10-10T02:58:00.754Z,1.20
2022-10-10T03:00:28.515Z,1.80
2022-10-10T03:02:56.263Z,1.80
2022-10-10T03:05:24.009Z,2.20
2022-10-10T03:07:51.773Z,2.50
2022-10-10T03:10:19.419Z,1.95
2022-10-10T03:12:46.917Z,1.80
2022-10-10T03:15:14.598Z,1.40
2022-10-10T03:17:42.594Z,1.40
2022-10-10T03:20:11.522Z,1.88
2022-10-10T03:22:38.994Z,1.58
2022-10-10T03:25:06.722Z,1.60
2022-10-10T03:27:34.185Z,2.10
2022-10-10T03:30:01.704Z,1.85
2022-10-10T03:32:29.326Z,1.73
2022-10-10T03:34:56.829Z,1.77
2022-10-10T03:37:24.350Z,2.30
2022-10-10T03:39:52.287Z,2.10
2022-10-10T03:42:19.824Z,1.90
2022-10-10T03:44:47.556Z,2.10
2022-10-10T03:47:15.174Z,1.95
2022-10-10T03:49:42.639Z,2.47
2022-10-10T03:52:10.186Z,1.73
2022-10-10T03:54:37.860Z,2.03
2022-10-10T03:57:05.501Z,1.90
2022-10-10T03:59:33.264Z,2.17
2022-10-10T04:02:00.714Z,2.20
2022-10-10T04:04:28.358Z,2.03
2022-10-10T04:06:55.830Z,2.08
2022-10-10T04:09:23.674Z,2.00
2022-10-10T04:11:51.360Z,2.17
2022-10-10T04:14:19.062Z,2.13
2022-10-10T04:16:46.768Z,2.38
2022-10-10T04:19:14.744Z,2.60
2022-10-10T04:21:42.387Z,1.57
2022-10-10T04:24:10.078Z,2.20
2022-10-10T04:26:37.633Z,2.53
2022-10-10T04:29:05.398Z,2.50
2022-10-10T04:31:33.067Z,2.63
2022-10-10T04:34:00.801Z,2.53
2022-10-10T04:36:28.483Z,2.67
2022-10-10T04:38:56.049Z,2.47
2022-10-10T04:41:23.793Z,2.38
2022-10-10T04:43:51.447Z,3.08
2022-10-10T04:46:19.137Z,2.20
2022-10-10T04:48:46.817Z,2.72
2022-10-10T04:51:14.601Z,2.20
2022-10-10T04:53:44.016Z,2.70
2022-10-10T04:56:14.555Z,2.20
2022-10-10T04:58:42.278Z,2.05
2022-10-10T05:01:09.975Z,2.33
2022-10-10T05:03:37.605Z,2.47
2022-10-10T05:06:05.226Z,2.13
2022-10-10T05:08:32.716Z,2.20
2022-10-10T05:11:00.688Z,2.50
2022-10-10T05:13:28.304Z,2.00
2022-10-10T05:15:55.894Z,1.90
2022-10-10T05:18:23.999Z,2.23
2022-10-10T05:20:51.522Z,2.30
2022-10-10T05:23:19.251Z,2.15
2022-10-10T05:25:51.167Z,3.05
2022-10-10T05:28:18.971Z,2.65
2022-10-10T05:30:46.537Z,2.67
2022-10-10T05:33:14.232Z,2.90
2022-10-10T05:35:41.829Z,2.40
2022-10-10T05:38:09.538Z,2.33
2022-10-10T05:40:40.564Z,2.15
2022-10-10T05:43:08.433Z,2.08
2022-10-10T05:45:36.295Z,2.22
2022-10-10T05:48:03.995Z,2.10
2022-10-10T05:50:36.116Z,2.35
2022-10-10T05:53:03.826Z,2.30
2022-10-10T05:55:31.454Z,2.00
2022-10-10T05:57:59.190Z,2.22
2022-10-10T06:00:26.667Z,1.80
2022-10-10T06:02:54.648Z,1.75
2022-10-10T06:05:22.665Z,2.17
2022-10-10T06:08:05.799Z,1.98
2022-10-10T06:10:44.784Z,2.10
2022-10-10T06:13:14.986Z,1.70
2022-10-10T06:15:43.324Z,2.72
2022-10-10T06:18:11.932Z,2.17
2022-10-10T06:20:41.419Z,1.73
2022-10-10T06:23:09.194Z,2.30
2022-10-10T06:25:41.520Z,2.73
2022-10-10T06:28:11.326Z,2.60
2022-10-10T06:30:43.048Z,2.00
2022-10-10T06:33:12.385Z,1.77
2022-10-10T06:35:45.084Z,2.35
2022-10-10T06:38:13.672Z,2.03
2022-10-10T06:40:41.840Z,1.77
2022-10-10T06:43:12.319Z,2.10
2022-10-10T06:45:42.592Z,2.08
2022-10-10T06:48:11.975Z,1.85
2022-10-10T06:50:39.852Z,2.13
2022-10-10T06:53:07.581Z,2.10
2022-10-10T06:55:35.356Z,2.13
2022-10-10T06:58:03.482Z,1.98
2022-10-10T07:00:31.003Z,1.90
2022-10-10T07:02:58.562Z,1.70
2022-10-10T07:05:26.066Z,2.30
2022-10-10T07:07:53.580Z,2.30
2022-10-10T07:10:21.049Z,2.00
2022-10-10T07:12:48.538Z,1.70
2022-10-10T07:15:16.068Z,1.77
2022-10-10T07:17:43.527Z,1.60
2022-10-10T07:20:11.019Z,1.30
2022-10-10T07:22:38.577Z,1.40
2022-10-10T07:25:06.443Z,1.30
2022-10-10T07:27:33.921Z,1.10
2022-10-10T07:30:01.545Z,1.33
2022-10-10T07:32:29.061Z,1.10
2022-10-10T07:34:58.464Z,1.40
2022-10-10T07:37:26.020Z,1.45
2022-10-10T07:39:54.004Z,1.30
2022-10-10T07:42:21.876Z,1.52
2022-10-10T07:44:49.548Z,1.40
2022-10-10T07:47:17.190Z,1.63
2022-10-10T07:49:44.809Z,1.23
2022-10-10T07:52:12.559Z,1.38
2022-10-10T07:54:40.012Z,1.23
2022-10-10T07:57:07.550Z,1.30
2022-10-10T07:59:35.274Z,1.63
2022-10-10T08:02:02.820Z,1.52
2022-10-10T08:04:30.332Z,1.40
2022-10-10T08:06:58.114Z,1.50
2022-10-10T08:09:25.583Z,1.80
2022-10-10T08:11:53.079Z,1.67
2022-10-10T08:14:20.508Z,1.58
2022-10-10T08:16:47.945Z,1.40
2022-10-10T08:19:15.358Z,1.40
2022-10-10T08:21:42.787Z,1.45
2022-10-10T08:24:10.248Z,1.80
2022-10-10T08:26:37.721Z,2.13
2022-10-10T08:29:05.134Z,1.80
2022-10-10T08:31:32.617Z,1.60
2022-10-10T08:34:00.276Z,1.50
2022-10-10T08:36:28.102Z,1.70
2022-10-10T08:39:01.077Z,1.73
2022-10-10T08:41:31.551Z,1.27
2022-10-10T08:44:04.467Z,1.40
2022-10-10T08:46:31.902Z,1.67
2022-10-10T08:49:13.923Z,1.88
2022-10-10T08:51:47.125Z,1.30
2022-10-10T08:54:17.534Z,1.30
2022-10-10T08:56:45.322Z,1.38
2022-10-10T08:59:21.807Z,1.30
2022-10-10T09:02:17.630Z,2.22
2022-10-10T09:04:39.741Z,1.70
2022-10-10T09:07:51.155Z,1.60
2022-10-10T09:10:59.610Z,1.60
2022-10-10T09:16:33.809Z,2.13
2022-10-10T09:19:36.546Z,1.40
2022-10-10T09:22:11.200Z,1.00
2022-10-10T09:24:55.791Z,1.30
2022-10-10T09:27:27.219Z,1.38
2022-10-10T09:30:17.781Z,1.10
2022-10-10T09:32:52.016Z,1.13
2022-10-10T09:35:24.005Z,1.15
2022-10-10T09:38:17.474Z,1.42
2022-10-10T09:40:52.408Z,1.10
2022-10-10T09:43:21.462Z,1.33
2022-10-10T09:45:54.254Z,1.33
2022-10-10T09:48:28.986Z,1.20
2022-10-10T09:50:57.370Z,1.75
2022-10-10T09:53:25.029Z,1.00
2022-10-10T09:55:54.002Z,1.30
2022-10-10T10:00:49.236Z,1.13
2022-10-10T10:03:19.236Z,1.58
2022-10-10T10:06:00.376Z,1.08
2022-10-10T10:08:36.640Z,1.30
2022-10-10T10:11:05.321Z,1.50
2022-10-10T10:13:37.769Z,1.27
2022-10-10T10:16:09.076Z,1.80
2022-10-10T10:18:45.370Z,1.25
2022-10-10T10:21:20.463Z,1.42
2022-10-10T10:24:02.523Z,0.95
2022-10-10T10:26:44.401Z,1.30
2022-10-10T10:29:46.196Z,1.20
2022-10-10T10:32:17.511Z,1.02
2022-10-10T10:35:12.503Z,1.00
2022-10-10T10:38:17.352Z,1.08
2022-10-10T10:41:03.637Z,1.20
2022-10-10T10:43:51.190Z,1.48
2022-10-10T10:46:30.964Z,1.00
2022-10-10T10:49:10.546Z,1.50
2022-10-10T10:52:09.044Z,1.15
2022-10-10T10:55:02.904Z,1.10
2022-10-10T10:58:22.385Z,1.10
2022-10-10T11:01:20.220Z,1.20
2022-10-10T11:05:20.030Z,1.00
2022-10-10T11:07:24.561Z,1.10
2022-10-10T11:10:21.966Z,1.25
2022-10-10T11:13:44.991Z,1.40
2022-10-10T11:16:46.995Z,1.42
2022-10-10T11:21:46.612Z,1.65
2022-10-10T11:24:28.330Z,1.30
2022-10-10T11:27:01.107Z,1.02
2022-10-10T11:29:34.426Z,0.93
2022-10-10T11:32:13.969Z,1.38
2022-10-10T11:34:50.824Z,2.05
2022-10-10T11:37:25.777Z,1.15
2022-10-10T11:39:57.521Z,1.08
2022-10-10T11:42:29.974Z,1.20
2022-10-10T11:45:07.010Z,1.67
2022-10-10T11:47:46.625Z,1.10
2022-10-10T11:50:27.813Z,1.30
2022-10-10T11:53:17.301Z,1.23
2022-10-10T11:55:53.028Z,1.50
2022-10-10T11:58:28.513Z,0.98
2022-10-10T12:01:13.182Z,1.30
2022-10-10T12:03:40.815Z,1.15
2022-10-10T12:06:38.578Z,1.60
2022-10-10T12:09:32.472Z,1.83
2022-10-10T12:12:10.930Z,1.83
2022-10-10T12:14:44.582Z,1.80
2022-10-10T12:17:21.796Z,1.77
2022-10-10T12:19:51.636Z,1.70
2022-10-10T12:22:31.002Z,2.10
2022-10-10T12:25:25.474Z,2.22
2022-10-10T12:28:14.876Z,1.88
2022-10-10T12:30:58.766Z,2.00
2022-10-10T12:33:26.348Z,2.65
2022-10-10T12:35:54.286Z,1.80
2022-10-10T12:38:30.672Z,1.20
2022-10-10T12:41:04.680Z,1.35
2022-10-10T12:43:44.492Z,1.70
2022-10-10T12:46:24.954Z,1.20
2022-10-10T12:48:58.631Z,1.33
2022-10-10T12:51:28.076Z,1.40
2022-10-10T12:53:58.583Z,1.15
2022-10-10T12:56:39.793Z,1.52
2022-10-10T12:59:18.574Z,1.50
2022-10-10T13:01:52.035Z,1.48
2022-10-10T13:04:20.859Z,1.30
2022-10-10T13:06:51.745Z,1.40
2022-10-10T13:09:28.091Z,1.55
2022-10-10T13:11:58.661Z,1.10
2022-10-10T13:14:38.099Z,1.17
2022-10-10T13:17:25.399Z,1.55
2022-10-10T13:19:54.994Z,1.10
2022-10-10T13:22:23.558Z,1.52
2022-10-10T13:24:52.042Z,1.50
2022-10-10T13:27:21.403Z,1.58
2022-10-10T13:29:53.073Z,1.60
2022-10-10T13:32:35.615Z,1.50
2022-10-10T13:35:13.273Z,1.40
2022-10-10T13:37:42.951Z,1.35
2022-10-10T13:40:15.791Z,1.65
2022-10-10T13:42:45.892Z,1.50
2022-10-10T13:45:30.678Z,1.55
2022-10-10T13:48:01.165Z,1.88
2022-10-10T13:50:32.174Z,1.77
2022-10-10T13:53:23.188Z,1.50
2022-10-10T13:55:58.720Z,1.67
2022-10-10T13:58:31.146Z,1.73
2022-10-10T14:01:01.665Z,2.00
2022-10-10T14:03:31.449Z,1.70
2022-10-10T14:05:59.453Z,1.65
2022-10-10T14:08:32.252Z,1.63
2022-10-10T14:11:22.071Z,1.50
2022-10-10T14:14:00.033Z,1.60
2022-10-10T14:16:27.561Z,1.60
2022-10-10T14:18:55.029Z,1.40
2022-10-10T14:21:22.836Z,1.77
2022-10-10T14:23:50.679Z,1.80
2022-10-10T14:26:20.029Z,1.35
2022-10-10T14:28:47.844Z,2.03
2022-10-10T14:31:15.909Z,2.00
2022-10-10T14:33:43.756Z,1.60
2022-10-10T14:36:12.554Z,1.33
2022-10-10T14:38:40.362Z,1.38
2022-10-10T14:41:12.667Z,1.58
2022-10-10T14:43:45.475Z,1.45
2022-10-10T14:46:19.915Z,1.50
2022-10-10T14:48:47.552Z,1.55
2022-10-10T14:51:35.161Z,1.65
2022-10-10T14:54:10.722Z,1.33
2022-10-10T14:59:46.286Z,1.70
2022-10-10T15:02:19.288Z,1.30
2022-10-10T15:04:46.897Z,1.45
2022-10-10T15:07:15.673Z,1.27
2022-10-10T15:12:43.544Z,2.10
2022-10-10T15:15:14.453Z,1.33
2022-10-10T15:17:42.437Z,1.63
2022-10-10T15:20:11.739Z,1.60
2022-10-10T15:22:40.310Z,1.70
2022-10-10T15:25:08.720Z,1.58
2022-10-10T15:30:06.285Z,1.70
2022-10-10T15:32:33.866Z,2.55
2022-10-10T15:35:01.367Z,2.38
2022-10-10T15:37:29.043Z,2.45
2022-10-10T15:39:57.055Z,1.48
2022-10-10T15:42:24.849Z,1.90
2022-10-10T15:44:52.511Z,1.90
2022-10-10T15:47:20.891Z,1.60
2022-10-10T15:49:49.209Z,1.98
2022-10-10T15:52:17.920Z,1.40
2022-10-10T15:54:48.666Z,1.70
2022-10-10T15:57:18.791Z,3.85
2022-10-10T15:59:47.484Z,1.88
2022-10-10T16:02:16.136Z,2.10
2022-10-10T16:04:44.893Z,2.28
2022-10-10T16:07:28.156Z,1.63
2022-10-10T16:09:57.889Z,1.90
2022-10-10T16:12:25.360Z,1.90
2022-10-10T16:14:52.908Z,2.45
2022-10-10T16:17:23.276Z,2.53
2022-10-10T16:19:52.369Z,2.30
2022-10-10T16:22:20.465Z,2.33
2022-10-10T16:25:17.295Z,2.20
2022-10-10T16:27:38.104Z,2.00
2022-10-10T16:30:06.991Z,1.65
2022-10-10T16:35:11.154Z,1.98
2022-10-10T16:37:39.267Z,2.00
2022-10-10T16:40:08.015Z,1.27
2022-10-10T16:42:35.851Z,2.10
2022-10-10T16:45:04.462Z,2.13
2022-10-10T16:47:32.283Z,1.60
2022-10-10T16:50:01.146Z,1.90
2022-10-10T16:52:28.977Z,1.90
2022-10-10T16:54:56.810Z,1.95
2022-10-10T16:57:24.444Z,2.72
2022-10-10T16:59:52.446Z,2.00
2022-10-10T17:02:24.315Z,2.13
2022-10-10T17:04:56.162Z,2.40
2022-10-10T17:07:24.322Z,2.40
2022-10-10T17:09:51.993Z,2.60
2022-10-10T17:12:19.695Z,2.70
2022-10-10T17:14:47.473Z,3.47
2022-10-10T17:17:17.500Z,2.80
2022-10-10T17:19:45.271Z,2.92
2022-10-10T17:22:12.853Z,2.80
2022-10-10T17:24:41.516Z,3.03
2022-10-10T17:27:09.025Z,2.88
2022-10-10T17:29:36.603Z,2.30
2022-10-10T17:32:06.477Z,2.25
2022-10-10T17:34:35.427Z,2.08
2022-10-10T17:37:04.180Z,2.55
2022-10-10T17:39:32.548Z,2.45
2022-10-10T17:42:00.612Z,2.30
2022-10-10T17:44:28.591Z,1.80
2022-10-10T17:46:56.723Z,2.30
2022-10-10T17:49:24.558Z,2.28
2022-10-10T17:51:52.337Z,2.30
2022-10-10T17:54:19.966Z,2.42
2022-10-10T17:56:47.550Z,2.05
2022-10-10T17:59:15.377Z,2.20
2022-10-10T18:01:43.039Z,1.92
2022-10-10T18:04:14.732Z,1.98
2022-10-10T18:06:42.362Z,2.13
2022-10-10T18:09:10.670Z,1.98
2022-10-10T18:11:38.384Z,2.23
2022-10-10T18:14:06.205Z,1.88
2022-10-10T18:16:34.448Z,1.98
2022-10-10T18:19:04.501Z,2.55
2022-10-10T18:21:32.345Z,2.20
2022-10-10T18:24:01.081Z,2.35
2022-10-10T18:26:29.902Z,2.22
2022-10-10T18:28:58.206Z,2.40
2022-10-10T18:31:28.967Z,2.00
2022-10-10T18:33:56.609Z,2.00
2022-10-10T18:36:27.622Z,2.20
2022-10-10T18:39:00.570Z,2.50
2022-10-10T18:41:34.036Z,2.28
2022-10-10T18:44:11.909Z,2.80
2022-10-10T18:46:40.149Z,2.10
2022-10-10T18:49:10.998Z,1.77
2022-10-10T18:51:41.362Z,2.00
2022-10-10T18:54:11.843Z,2.60
2022-10-10T18:56:41.115Z,2.00
2022-10-10T18:59:15.475Z,2.10
2022-10-10T19:01:45.760Z,1.90
2022-10-10T19:04:15.489Z,1.98
2022-10-10T19:06:44.125Z,2.33
2022-10-10T19:09:15.866Z,2.10
2022-10-10T19:11:47.468Z,1.90
2022-10-10T19:14:17.723Z,2.33
2022-10-10T19:16:47.405Z,2.08
2022-10-10T19:19:18.278Z,2.30
2022-10-10T19:21:48.038Z,2.53
2022-10-10T19:24:19.523Z,2.17
2022-10-10T19:26:53.124Z,2.30
2022-10-10T19:29:21.448Z,2.22
2022-10-10T19:31:49.198Z,2.33
2022-10-10T19:34:16.793Z,2.40
2022-10-10T19:36:45.020Z,2.28
2022-10-10T19:39:13.136Z,2.20
2022-10-10T19:41:41.059Z,1.83
2022-10-10T19:44:10.807Z,2.08
2022-10-10T19:46:38.490Z,2.00
2022-10-10T19:49:06.858Z,1.73
2022-10-10T19:51:34.681Z,1.88
2022-10-10T19:54:02.485Z,1.65
2022-10-10T19:56:30.136Z,1.75
2022-10-10T19:59:00.244Z,1.48
2022-10-10T20:01:29.922Z,1.65
2022-10-10T20:03:59.145Z,2.15
2022-10-10T20:06:27.214Z,1.73
2022-10-10T20:08:55.243Z,1.70
2022-10-10T20:11:23.416Z,1.43
2022-10-10T20:13:53.216Z,0.97
2022-10-10T20:16:22.384Z,1.80
2022-10-10T20:21:22.074Z,1.98
2022-10-10T20:23:50.087Z,1.70
2022-10-10T20:26:20.848Z,1.40
2022-10-10T20:28:50.728Z,2.13
2022-10-10T20:31:23.393Z,1.83
2022-10-10T20:33:53.122Z,1.65
2022-10-10T20:36:23.201Z,1.70
2022-10-10T20:38:52.966Z,1.75
2022-10-10T20:41:22.121Z,1.50
2022-10-10T20:46:17.367Z,1.60
2022-10-10T20:48:44.898Z,1.80
2022-10-10T20:51:13.794Z,1.60
2022-10-10T20:53:44.501Z,1.60
2022-10-10T20:56:13.158Z,2.05
2022-10-10T20:58:40.947Z,1.55
2022-10-10T21:01:08.511Z,1.65
2022-10-10T21:03:37.896Z,1.80
2022-10-10T21:06:14.451Z,2.00
2022-10-10T21:08:43.193Z,1.65
2022-10-10T21:11:13.232Z,1.65
2022-10-10T21:13:44.074Z,1.90
2022-10-10T21:16:15.334Z,1.90
2022-10-10T21:18:56.989Z,2.00
2022-10-10T21:21:34.676Z,2.00
2022-10-10T21:24:06.254Z,1.98
2022-10-10T21:26:34.370Z,2.10
2022-10-10T21:29:02.526Z,2.10
2022-10-10T21:31:32.767Z,1.88
2022-10-10T21:34:02.589Z,2.00
2022-10-10T21:36:31.922Z,2.05
2022-10-10T21:39:01.057Z,2.00
2022-10-10T21:43:59.651Z,1.92
2022-10-10T21:46:34.738Z,2.00
2022-10-10T21:49:09.842Z,2.00
2022-10-10T21:51:42.697Z,1.88
2022-10-10T21:54:10.566Z,2.20
2022-10-10T21:56:38.599Z,1.88
2022-10-10T21:59:06.752Z,2.40
2022-10-10T22:01:34.539Z,2.00
2022-10-10T22:04:02.927Z,1.90
2022-10-10T22:06:30.816Z,1.83
2022-10-10T22:08:59.710Z,1.85
2022-10-10T22:11:29.296Z,1.77
2022-10-10T22:13:57.145Z,1.92
2022-10-10T22:16:24.923Z,2.25
2022-10-10T22:18:57.672Z,2.13
2022-10-10T22:21:30.196Z,1.85
2022-10-10T22:24:01.956Z,1.90
2022-10-10T22:26:30.409Z,1.75
2022-10-10T22:28:58.373Z,1.80
2022-10-10T22:31:26.019Z,1.92
2022-10-10T22:33:53.616Z,2.15
2022-10-10T22:36:21.085Z,1.83
2022-10-10T22:38:48.526Z,1.80
2022-10-10T22:41:16.047Z,1.98
2022-10-10T22:43:43.573Z,1.90
2022-10-10T22:46:11.017Z,1.95
2022-10-10T22:48:39.227Z,2.13
2022-10-10T22:51:12.627Z,2.30
2022-10-10T22:53:41.974Z,2.30
2022-10-10T22:56:10.957Z,1.75
2022-10-10T22:58:38.643Z,2.05
2022-10-10T23:01:08.833Z,2.33
2022-10-10T23:03:36.330Z,2.00
2022-10-10T23:06:04.280Z,2.25
2022-10-10T23:08:32.542Z,1.70
2022-10-10T23:11:00.085Z,1.52
2022-10-10T23:13:28.218Z,2.05
2022-10-10T23:15:55.766Z,2.53
2022-10-10T23:18:23.483Z,1.88
2022-10-10T23:20:51.236Z,2.03
2022-10-10T23:23:18.985Z,2.17
2022-10-10T23:25:47.805Z,1.77
2022-10-10T23:30:45.283Z,1.77
2022-10-10T23:33:14.027Z,1.88
2022-10-10T23:35:41.610Z,1.90
2022-10-10T23:38:09.168Z,2.10
2022-10-10T23:40:36.819Z,2.00
2022-10-10T23:43:04.457Z,2.20
2022-10-10T23:45:32.193Z,1.90
2022-10-10T23:47:59.848Z,2.78
2022-10-10T23:50:27.300Z,2.13
2022-10-10T23:52:54.994Z,2.20
2022-10-10T23:55:22.687Z,1.95
2022-10-10T23:57:50.224Z,2.22
